TAP118 SBPA-LPPT
Flight info
| Callsign | TAP118 |
|---|---|
| Flight time | N/A |
| Altitude | 33000 |
| Route | ANLER UM540 ANISE UZ23 ILPIR UZ72 UDIDU/N0479F350 UZ72 EDNES UN866 DEKON/N0474F360 UN866 AMDOL/N0470F370 UN866 TENPA N866 GOMER/N0458F380 N866 KONBA UN866 BEXAL DCT LUVUP |
| Aircraft | A339/H-SADE1E2E3GHIJ3J5M1P2RWXY/LB2D1 |
Departure
| Time | 2026-04-28 12:00 |
|---|---|
| Airport | Porto Alegre-Salgado Filho International Airport (SBPA) |
Arrival
| Time | N/A |
|---|---|
| Airport | Lisbon Humberto Delgado Airport (LPPT) |
| Time | Latitude | Longitude | Altitude | Speed | Heading |
|---|---|---|---|---|---|
| 2026-04-28 11:20 | -29.99026 | -51.17871 | 22 ft | 0 kts | 90° |
| 2026-04-28 11:45 | -29.99026 | -51.17883 | 26 ft | 2 kts | 90° |
| 2026-04-28 11:45 | -29.99026 | -51.17902 | 25 ft | 2 kts | 91° |
| 2026-04-28 11:45 | -29.99034 | -51.17924 | 27 ft | 2 kts | 146° |
| 2026-04-28 11:45 | -29.99023 | -51.17933 | 27 ft | 2 kts | 350° |
| 2026-04-28 11:46 | -29.99014 | -51.17932 | 28 ft | 2 kts | 1° |
| 2026-04-28 11:46 | -29.99018 | -51.17933 | 27 ft | 0 kts | 355° |
| 2026-04-28 11:46 | -29.99023 | -51.17930 | 27 ft | 2 kts | 10° |
| 2026-04-28 11:47 | -29.99031 | -51.17947 | 28 ft | 2 kts | 305° |
| 2026-04-28 11:47 | -29.99037 | -51.17931 | 27 ft | 2 kts | 116° |
| 2026-04-28 11:47 | -29.99022 | -51.17934 | 27 ft | 1 kts | 38° |
| 2026-04-28 11:47 | -29.99037 | -51.17944 | 27 ft | 2 kts | 66° |
| 2026-04-28 11:48 | -29.99041 | -51.17961 | 27 ft | 2 kts | 86° |
| 2026-04-28 11:48 | -29.99041 | -51.17981 | 27 ft | 2 kts | 46° |
| 2026-04-28 11:48 | -29.99054 | -51.17993 | 27 ft | 2 kts | 27° |
| 2026-04-28 11:48 | -29.99068 | -51.18001 | 27 ft | 2 kts | 26° |
| 2026-04-28 11:49 | -29.99083 | -51.18009 | 27 ft | 2 kts | 26° |
| 2026-04-28 11:49 | -29.99097 | -51.18021 | 27 ft | 2 kts | 345° |
| 2026-04-28 11:49 | -29.99112 | -51.18013 | 27 ft | 2 kts | 291° |
| 2026-04-28 11:49 | -29.99118 | -51.17996 | 27 ft | 2 kts | 289° |
| 2026-04-28 11:50 | -29.99118 | -51.17994 | 27 ft | 0 kts | 289° |
| 2026-04-28 11:54 | -29.99115 | -51.18005 | 25 ft | 4 kts | 288° |
| 2026-04-28 11:55 | -29.99142 | -51.18038 | 25 ft | 7 kts | 206° |
| 2026-04-28 11:55 | -29.99189 | -51.18070 | 23 ft | 8 kts | 210° |
| 2026-04-28 11:55 | -29.99225 | -51.18112 | 23 ft | 7 kts | 243° |
| 2026-04-28 11:55 | -29.99250 | -51.18159 | 23 ft | 7 kts | 234° |
| 2026-04-28 11:56 | -29.99280 | -51.18184 | 22 ft | 0 kts | 206° |
| 2026-04-28 11:57 | -29.99281 | -51.18185 | 22 ft | 0 kts | 206° |
| 2026-04-28 11:58 | -29.99285 | -51.18187 | 22 ft | 1 kts | 206° |
| 2026-04-28 11:58 | -29.99291 | -51.18191 | 22 ft | 1 kts | 207° |
| 2026-04-28 11:58 | -29.99303 | -51.18198 | 22 ft | 4 kts | 207° |
| 2026-04-28 11:58 | -29.99357 | -51.18230 | 22 ft | 12 kts | 207° |
| 2026-04-28 11:59 | -29.99418 | -51.18246 | 25 ft | 7 kts | 180° |
| 2026-04-28 11:59 | -29.99437 | -51.18218 | 24 ft | 2 kts | 104° |
| 2026-04-28 11:59 | -29.99436 | -51.18201 | 29 ft | 4 kts | 91° |
| 2026-04-28 11:59 | -29.99444 | -51.17910 | 27 ft | 74 kts | 91° |
| 2026-04-28 12:00 | -29.99460 | -51.17044 | 19 ft | 140 kts | 91° |
| 2026-04-28 12:00 | -29.99477 | -51.15724 | 144 ft | 179 kts | 90° |
| 2026-04-28 12:00 | -29.99486 | -51.14278 | 718 ft | 185 kts | 89° |
| 2026-04-28 12:00 | -29.99480 | -51.12766 | 1336 ft | 194 kts | 89° |
| 2026-04-28 12:01 | -29.99461 | -51.11152 | 1750 ft | 206 kts | 88° |
| 2026-04-28 12:01 | -29.99449 | -51.09431 | 2076 ft | 225 kts | 90° |
| 2026-04-28 12:01 | -29.99441 | -51.07556 | 2392 ft | 241 kts | 89° |
| 2026-04-28 12:01 | -29.99417 | -51.05570 | 2784 ft | 254 kts | 89° |
| 2026-04-28 12:02 | -29.99486 | -51.03485 | 3059 ft | 269 kts | 92° |
| 2026-04-28 12:02 | -29.99589 | -51.01311 | 3396 ft | 280 kts | 92° |
| 2026-04-28 12:02 | -29.99695 | -50.99096 | 4111 ft | 273 kts | 92° |
| 2026-04-28 12:02 | -29.99787 | -50.96919 | 4762 ft | 272 kts | 90° |
| 2026-04-28 12:03 | -29.99369 | -50.94744 | 4979 ft | 281 kts | 61° |
| 2026-04-28 12:03 | -29.98181 | -50.92983 | 5379 ft | 283 kts | 36° |
| 2026-04-28 12:03 | -29.96514 | -50.91783 | 5810 ft | 285 kts | 25° |
| 2026-04-28 12:03 | -29.94740 | -50.90705 | 6288 ft | 289 kts | 24° |
| 2026-04-28 12:04 | -29.92981 | -50.89619 | 6963 ft | 286 kts | 25° |
| 2026-04-28 12:04 | -29.91268 | -50.88474 | 7459 ft | 290 kts | 26° |
| 2026-04-28 12:04 | -29.89549 | -50.87235 | 7981 ft | 293 kts | 28° |
| 2026-04-28 12:04 | -29.87832 | -50.85939 | 8487 ft | 297 kts | 28° |
| 2026-04-28 12:05 | -29.86111 | -50.84618 | 9014 ft | 299 kts | 28° |
| 2026-04-28 12:05 | -29.84371 | -50.83274 | 9524 ft | 302 kts | 28° |
| 2026-04-28 12:05 | -29.82605 | -50.81912 | 9732 ft | 306 kts | 28° |
| 2026-04-28 12:05 | -29.80839 | -50.80551 | 9854 ft | 306 kts | 28° |
| 2026-04-28 12:06 | -29.79058 | -50.79182 | 10026 ft | 308 kts | 28° |
| 2026-04-28 12:06 | -29.77289 | -50.77818 | 10317 ft | 311 kts | 28° |
| 2026-04-28 12:06 | -29.75457 | -50.76409 | 10515 ft | 324 kts | 28° |
| 2026-04-28 12:06 | -29.73539 | -50.74933 | 10671 ft | 340 kts | 28° |
| 2026-04-28 12:07 | -29.71533 | -50.73386 | 10846 ft | 353 kts | 29° |
| 2026-04-28 12:07 | -29.69480 | -50.71793 | 11292 ft | 356 kts | 29° |
| 2026-04-28 12:07 | -29.67435 | -50.70208 | 11795 ft | 358 kts | 29° |
| 2026-04-28 12:07 | -29.65382 | -50.68619 | 12296 ft | 359 kts | 29° |
| 2026-04-28 12:08 | -29.63299 | -50.67009 | 12797 ft | 361 kts | 29° |
| 2026-04-28 12:08 | -29.61217 | -50.65400 | 13286 ft | 362 kts | 29° |
| 2026-04-28 12:08 | -29.59113 | -50.63777 | 13730 ft | 365 kts | 28° |
| 2026-04-28 12:08 | -29.56996 | -50.62149 | 14201 ft | 367 kts | 29° |
| 2026-04-28 12:09 | -29.54869 | -50.60517 | 14622 ft | 369 kts | 29° |
| 2026-04-28 12:09 | -29.52728 | -50.58874 | 15010 ft | 372 kts | 28° |
| 2026-04-28 12:09 | -29.50602 | -50.57238 | 15427 ft | 374 kts | 28° |
| 2026-04-28 12:09 | -29.48402 | -50.55540 | 15818 ft | 377 kts | 30° |
| 2026-04-28 12:10 | -29.46378 | -50.53649 | 16216 ft | 383 kts | 36° |
| 2026-04-28 12:10 | -29.44366 | -50.51627 | 16619 ft | 386 kts | 36° |
| 2026-04-28 12:10 | -29.42331 | -50.49593 | 16993 ft | 388 kts | 36° |
| 2026-04-28 12:10 | -29.40285 | -50.47560 | 17383 ft | 391 kts | 36° |
| 2026-04-28 12:11 | -29.38222 | -50.45515 | 17789 ft | 393 kts | 36° |
| 2026-04-28 12:11 | -29.36146 | -50.43460 | 18179 ft | 396 kts | 36° |
| 2026-04-28 12:11 | -29.34050 | -50.41386 | 18553 ft | 398 kts | 36° |
| 2026-04-28 12:11 | -29.31979 | -50.39336 | 18908 ft | 400 kts | 36° |
| 2026-04-28 12:12 | -29.29864 | -50.37245 | 19281 ft | 402 kts | 36° |
| 2026-04-28 12:12 | -29.27720 | -50.35180 | 19642 ft | 402 kts | 32° |
| 2026-04-28 12:12 | -29.25473 | -50.33271 | 19987 ft | 403 kts | 31° |
| 2026-04-28 12:12 | -29.23213 | -50.31350 | 20368 ft | 405 kts | 32° |
| 2026-04-28 12:13 | -29.20943 | -50.29417 | 20728 ft | 408 kts | 32° |
| 2026-04-28 12:13 | -29.18662 | -50.27470 | 21103 ft | 410 kts | 32° |
| 2026-04-28 12:13 | -29.16371 | -50.25515 | 21466 ft | 412 kts | 32° |
| 2026-04-28 12:13 | -29.14069 | -50.23552 | 21819 ft | 414 kts | 32° |
| 2026-04-28 12:14 | -29.11783 | -50.21603 | 22177 ft | 417 kts | 32° |
| 2026-04-28 12:14 | -29.09453 | -50.19617 | 22551 ft | 419 kts | 32° |
| 2026-04-28 12:14 | -29.07117 | -50.17628 | 22927 ft | 420 kts | 31° |
| 2026-04-28 12:14 | -29.04759 | -50.15622 | 23297 ft | 423 kts | 31° |
| 2026-04-28 12:15 | -29.02394 | -50.13610 | 23655 ft | 425 kts | 31° |
| 2026-04-28 12:15 | -29.00008 | -50.11581 | 23977 ft | 428 kts | 31° |
| 2026-04-28 12:15 | -28.97613 | -50.09544 | 24274 ft | 431 kts | 31° |
| 2026-04-28 12:15 | -28.95200 | -50.07497 | 24559 ft | 433 kts | 31° |
| 2026-04-28 12:16 | -28.92807 | -50.05468 | 24858 ft | 436 kts | 30° |
| 2026-04-28 12:16 | -28.90365 | -50.03397 | 25138 ft | 438 kts | 30° |
| 2026-04-28 12:16 | -28.87912 | -50.01318 | 25408 ft | 441 kts | 29° |
| 2026-04-28 12:16 | -28.85442 | -49.99226 | 25679 ft | 443 kts | 29° |
| 2026-04-28 12:17 | -28.82958 | -49.97124 | 25955 ft | 446 kts | 28° |
| 2026-04-28 12:17 | -28.80460 | -49.95009 | 26275 ft | 447 kts | 28° |
| 2026-04-28 12:17 | -28.77956 | -49.92888 | 26506 ft | 450 kts | 28° |
| 2026-04-28 12:17 | -28.75461 | -49.90776 | 26724 ft | 454 kts | 28° |
| 2026-04-28 12:18 | -28.72917 | -49.88627 | 27058 ft | 456 kts | 27° |
| 2026-04-28 12:18 | -28.70362 | -49.86468 | 27322 ft | 458 kts | 27° |
| 2026-04-28 12:18 | -28.67795 | -49.84301 | 27627 ft | 460 kts | 27° |
| 2026-04-28 12:18 | -28.65220 | -49.82132 | 27896 ft | 462 kts | 27° |
| 2026-04-28 12:19 | -28.62628 | -49.79951 | 28101 ft | 465 kts | 27° |
| 2026-04-28 12:19 | -28.60025 | -49.77755 | 28328 ft | 467 kts | 27° |
| 2026-04-28 12:19 | -28.57416 | -49.75549 | 28636 ft | 467 kts | 26° |
| 2026-04-28 12:19 | -28.54794 | -49.73340 | 28849 ft | 468 kts | 26° |
| 2026-04-28 12:20 | -28.52195 | -49.71160 | 29064 ft | 472 kts | 26° |
| 2026-04-28 12:20 | -28.49552 | -49.68941 | 29338 ft | 474 kts | 26° |
| 2026-04-28 12:20 | -28.46894 | -49.66710 | 29609 ft | 476 kts | 25° |
| 2026-04-28 12:20 | -28.44227 | -49.64472 | 29870 ft | 478 kts | 25° |
| 2026-04-28 12:21 | -28.41544 | -49.62221 | 30118 ft | 480 kts | 25° |
| 2026-04-28 12:21 | -28.38849 | -49.59965 | 30348 ft | 482 kts | 25° |
| 2026-04-28 12:21 | -28.36145 | -49.57699 | 30555 ft | 484 kts | 25° |
| 2026-04-28 12:21 | -28.33435 | -49.55430 | 30813 ft | 485 kts | 25° |
| 2026-04-28 12:22 | -28.30752 | -49.53185 | 31025 ft | 487 kts | 25° |
| 2026-04-28 12:22 | -28.28020 | -49.50899 | 31307 ft | 489 kts | 25° |
| 2026-04-28 12:22 | -28.25276 | -49.48594 | 31615 ft | 490 kts | 25° |
| 2026-04-28 12:22 | -28.22531 | -49.46306 | 31838 ft | 490 kts | 25° |
| 2026-04-28 12:23 | -28.19770 | -49.44011 | 31999 ft | 494 kts | 25° |
| 2026-04-28 12:23 | -28.16972 | -49.41687 | 32167 ft | 499 kts | 26° |
| 2026-04-28 12:23 | -28.14210 | -49.39376 | 32420 ft | 500 kts | 26° |
| 2026-04-28 12:23 | -28.11409 | -49.37036 | 32615 ft | 501 kts | 25° |
| 2026-04-28 12:24 | -28.08598 | -49.34699 | 32800 ft | 501 kts | 25° |
| 2026-04-28 12:24 | -28.05796 | -49.32346 | 32987 ft | 502 kts | 26° |
| 2026-04-28 12:24 | -28.00180 | -49.27557 | 33163 ft | 507 kts | 26° |
| 2026-04-28 12:25 | -27.94551 | -49.22761 | 33180 ft | 511 kts | 26° |
| 2026-04-28 12:25 | -27.88882 | -49.17941 | 33182 ft | 511 kts | 26° |
| 2026-04-28 12:26 | -27.83147 | -49.13230 | 33181 ft | 507 kts | 24° |
| 2026-04-28 12:26 | -27.77366 | -49.08644 | 33177 ft | 508 kts | 24° |
| 2026-04-28 12:27 | -27.71623 | -49.04062 | 33189 ft | 509 kts | 25° |
| 2026-04-28 12:27 | -27.65862 | -48.99393 | 33188 ft | 510 kts | 26° |
| 2026-04-28 12:28 | -27.60136 | -48.94662 | 33137 ft | 509 kts | 26° |
| 2026-04-28 12:28 | -27.54455 | -48.89985 | 33177 ft | 508 kts | 26° |
| 2026-04-28 12:29 | -27.45870 | -48.82927 | 33186 ft | 510 kts | 26° |
| 2026-04-28 12:30 | -27.40139 | -48.78231 | 33188 ft | 507 kts | 26° |
| 2026-04-28 12:30 | -27.34455 | -48.73562 | 33178 ft | 508 kts | 26° |
| 2026-04-28 12:31 | -27.28756 | -48.68902 | 33172 ft | 509 kts | 26° |
| 2026-04-28 12:31 | -27.23049 | -48.64217 | 33163 ft | 509 kts | 27° |
| 2026-04-28 12:32 | -27.17389 | -48.59438 | 33166 ft | 508 kts | 27° |
| 2026-04-28 12:32 | -27.11716 | -48.54817 | 33161 ft | 507 kts | 26° |
| 2026-04-28 12:33 | -27.05982 | -48.50207 | 33161 ft | 507 kts | 26° |
| 2026-04-28 12:33 | -27.00248 | -48.45590 | 33159 ft | 507 kts | 26° |
| 2026-04-28 12:34 | -26.94528 | -48.40982 | 33158 ft | 505 kts | 27° |
| 2026-04-28 12:34 | -26.88864 | -48.36422 | 33160 ft | 504 kts | 27° |
| 2026-04-28 12:35 | -26.83165 | -48.31839 | 33153 ft | 504 kts | 27° |